Ripon, WI (54971)

1:01 AM CST on November 26, 2014 (GMT -0600)
Barlow Park | Change Station
CLOSE
Current Station
Personal Weather Station
Location: Ripon, WI
Elevation: 984 ft
Nearby Weather Stations

Elev 984 ft 43.83 °N, 88.84 °W | Updated 1 second ago

Partly Cloudy
Partly Cloudy
11.6 °F
Feels Like 12 °F
N
0.6
Wind Variable Wind from South
Gusts 2.3 mph

Today
High -- | Low -- °F
--% Chance of Precip.
Yesterday
High -- | Low -- °F
Precip. -- in
7:03 AM 4:21 PM
Waxing Crescent, 17% visible
Pressure 30.23 in
Visibility 5.0 miles
Clouds Clear
Windchill 12 °F
Dew Point 8 °F
Humidity 87%
Rainfall 0.00 in
Snow Depth Not available.
UV 0.0 out of 12
Pollen .10 out of 12
Air Quality Not available.
Flu Activity Not available.
METAR KOSH 260653Z AUTO 17003KT 5SM BR CLR M11/M12 A3016 RMK AO2 SLP237 I1000 T11111122

More Conditions Fewer Conditions

Pressure 30.23 in
Visibility 5.0 miles
Clouds Clear
Windchill 12 °F
Dew Point 8 °F
Humidity 87%
Rainfall 0.00 in
Snow Depth Not available.
UV 0.0 out of 12
Pollen .10 out of 12
Air Quality Not available.
Flu Activity Not available.
METAR KOSH 260653Z AUTO 17003KT 5SM BR CLR M11/M12 A3016 RMK AO2 SLP237 I1000 T11111122

More Conditions Fewer Conditions

10-Day Weather Forecast

Almanac

Astronomy

Nov. 26, 2014 Rise Set
Actual Time
Civil Twilight
Nautical Twilight
Astronomical Twilight
Moon
Length of Visible Light
Length of Day
Tomorrow will be .
, % of the Moon is Illuminated

Today's Extremes

State Highs State Lows

Community

WunderPhotos

Upload Photos

1,773,694 photos uploaded!

WunderBlogs® & News

Nearby

Air Quality

  Air Quality AQ Index Pollutant
Not available.

Snow Depth

Station Depth Elevation

Earthquake Activity

City Distance Mag. Time & Date
Minimum magnitude displayed is 2.5.

Coastal Water Temperatures

Place Temperature

Nearby Weather Stations